createdAt,value
2018-07-14T00:01:46.449Z,15.30
2018-07-14T00:04:22.148Z,15.43
2018-07-14T00:06:55.854Z,15.40
2018-07-14T00:09:33.296Z,15.39
2018-07-14T00:12:07.400Z,15.29
2018-07-14T00:14:39.897Z,15.22
2018-07-14T00:17:12.480Z,15.28
2018-07-14T00:19:45.187Z,15.41
2018-07-14T00:22:18.460Z,15.63
2018-07-14T00:24:51.512Z,15.89
2018-07-14T00:27:25.310Z,16.07
2018-07-14T00:29:57.799Z,16.06
2018-07-14T00:32:34.842Z,15.95
2018-07-14T00:35:10.709Z,15.98
2018-07-14T00:37:43.860Z,16.22
2018-07-14T00:40:16.347Z,16.47
2018-07-14T00:42:49.304Z,16.54
2018-07-14T00:45:22.637Z,16.46
2018-07-14T00:47:54.988Z,16.38
2018-07-14T00:50:28.792Z,16.51
2018-07-14T00:53:03.232Z,16.72
2018-07-14T00:55:37.069Z,16.65
2018-07-14T00:58:09.810Z,16.42
2018-07-14T01:00:42.457Z,16.24
2018-07-14T01:03:18.912Z,16.15
2018-07-14T01:05:52.817Z,16.10
2018-07-14T01:08:26.896Z,16.16
2018-07-14T01:11:00.393Z,16.38
2018-07-14T01:13:34.093Z,16.44
2018-07-14T01:16:08.203Z,16.36
2018-07-14T01:18:40.677Z,16.33
2018-07-14T01:21:13.391Z,16.41
2018-07-14T01:23:49.303Z,16.61
2018-07-14T01:26:21.668Z,16.77
2018-07-14T01:28:54.463Z,16.88
2018-07-14T01:31:26.863Z,16.90
2018-07-14T01:33:59.572Z,16.93
2018-07-14T01:36:32.492Z,16.97
2018-07-14T01:39:06.331Z,17.03
2018-07-14T01:41:38.733Z,17.06
2018-07-14T01:44:11.597Z,16.99
2018-07-14T01:46:43.924Z,16.91
2018-07-14T01:49:17.038Z,16.90
2018-07-14T01:51:49.733Z,16.93
2018-07-14T01:54:23.336Z,16.98
2018-07-14T01:56:55.960Z,16.88
2018-07-14T01:59:28.862Z,16.76
2018-07-14T02:02:01.254Z,16.65
2018-07-14T02:04:34.848Z,16.70
2018-07-14T02:07:09.561Z,16.62
2018-07-14T02:09:42.904Z,16.63
2018-07-14T02:12:15.432Z,16.63
2018-07-14T02:14:48.230Z,16.66
2018-07-14T02:17:21.959Z,16.60
2018-07-14T02:19:54.502Z,16.60
2018-07-14T02:22:27.166Z,16.53
2018-07-14T02:24:59.816Z,16.58
2018-07-14T02:27:32.420Z,16.53
2018-07-14T02:30:06.650Z,16.45
2018-07-14T02:32:39.195Z,16.41
2018-07-14T02:35:11.781Z,16.39
2018-07-14T02:37:45.554Z,16.48
2018-07-14T02:40:18.423Z,16.48
2018-07-14T02:42:50.792Z,16.50
2018-07-14T02:45:24.644Z,16.45
2018-07-14T02:48:00.118Z,16.49
2018-07-14T02:50:32.580Z,16.45
2018-07-14T02:53:13.672Z,16.38
2018-07-14T02:55:47.847Z,16.41
2018-07-14T02:58:21.835Z,16.45
2018-07-14T03:00:54.851Z,16.32
2018-07-14T03:03:27.426Z,16.27
2018-07-14T03:06:00.773Z,16.21
2018-07-14T03:08:33.580Z,16.08
2018-07-14T03:11:06.869Z,15.97
2018-07-14T03:13:39.650Z,15.94
2018-07-14T03:16:13.390Z,16.03
2018-07-14T03:18:45.772Z,16.04
2018-07-14T03:21:18.295Z,16.05
2018-07-14T03:23:51.128Z,16.14
2018-07-14T03:26:24.029Z,16.08
2018-07-14T03:28:56.432Z,15.96
2018-07-14T03:31:29.253Z,15.77
2018-07-14T03:34:01.784Z,15.56
2018-07-14T03:36:34.523Z,15.46
2018-07-14T03:39:09.313Z,15.49
2018-07-14T03:41:42.017Z,15.53
2018-07-14T03:44:14.568Z,15.56
2018-07-14T03:46:47.418Z,15.60
2018-07-14T03:49:19.932Z,15.62
2018-07-14T03:51:52.821Z,15.64
2018-07-14T03:54:25.712Z,15.75
2018-07-14T03:56:58.397Z,15.82
2018-07-14T03:59:30.841Z,15.76
2018-07-14T04:02:03.761Z,15.70
2018-07-14T04:04:36.213Z,15.73
2018-07-14T04:07:08.785Z,15.77
2018-07-14T04:09:41.578Z,15.79
2018-07-14T04:12:24.647Z,15.78
2018-07-14T04:14:57.193Z,15.74
2018-07-14T04:17:29.954Z,15.70
2018-07-14T04:20:02.617Z,15.70
2018-07-14T04:22:35.141Z,15.63
2018-07-14T04:25:07.892Z,15.54
2018-07-14T04:27:40.307Z,15.50
2018-07-14T04:30:15.368Z,15.54
2018-07-14T04:32:48.316Z,15.54
2018-07-14T04:35:20.868Z,15.54
2018-07-14T04:37:53.463Z,15.70
2018-07-14T04:40:26.303Z,15.87
2018-07-14T04:42:58.812Z,15.98
2018-07-14T04:45:31.364Z,16.10
2018-07-14T04:48:05.885Z,16.16
2018-07-14T04:50:38.699Z,16.13
2018-07-14T04:53:12.083Z,16.09
2018-07-14T04:55:44.709Z,16.06
2018-07-14T04:58:17.191Z,16.06
2018-07-14T05:00:49.708Z,16.09
2018-07-14T05:03:22.673Z,16.13
2018-07-14T05:05:55.120Z,16.27
2018-07-14T05:08:27.653Z,16.36
2018-07-14T05:11:00.757Z,16.44
2018-07-14T05:13:34.248Z,16.54
2018-07-14T05:16:10.632Z,16.62
2018-07-14T05:18:43.672Z,16.71
2018-07-14T05:21:16.438Z,16.76
2018-07-14T05:23:48.890Z,16.84
2018-07-14T05:26:21.540Z,16.91
2018-07-14T05:28:55.477Z,17.01
2018-07-14T05:31:27.813Z,17.18
2018-07-14T05:34:00.329Z,17.33
2018-07-14T05:36:34.803Z,17.43
2018-07-14T05:39:08.838Z,17.53
2018-07-14T05:41:41.813Z,17.61
2018-07-14T05:44:14.548Z,17.68
2018-07-14T05:46:51.333Z,17.77
2018-07-14T05:49:26.557Z,17.84
2018-07-14T05:52:01.571Z,17.92
2018-07-14T05:54:35.637Z,18.01
2018-07-14T05:57:08.829Z,18.09
2018-07-14T05:59:42.268Z,18.18
2018-07-14T06:02:15.390Z,18.26
2018-07-14T06:04:48.281Z,18.34
2018-07-14T06:07:21.323Z,18.42
2018-07-14T06:09:54.060Z,18.49
2018-07-14T06:12:27.262Z,18.59
2018-07-14T06:15:04.154Z,18.71
2018-07-14T06:17:36.913Z,18.83
2018-07-14T06:20:10.426Z,18.96
2018-07-14T06:22:42.937Z,19.11
2018-07-14T06:25:15.863Z,19.24
2018-07-14T06:27:48.670Z,19.37
2018-07-14T06:30:21.698Z,19.47
2018-07-14T06:32:55.070Z,19.58
2018-07-14T06:35:30.247Z,19.69
2018-07-14T06:38:02.894Z,19.84
2018-07-14T06:40:35.398Z,20.05
2018-07-14T06:43:08.405Z,20.26
2018-07-14T06:45:40.941Z,20.44
2018-07-14T06:48:15.696Z,20.61
2018-07-14T06:50:48.254Z,20.71
2018-07-14T06:53:20.782Z,20.73
2018-07-14T06:55:55.609Z,20.86
2018-07-14T06:58:30.626Z,20.92
2018-07-14T07:01:03.232Z,21.03
2018-07-14T07:03:36.041Z,20.95
2018-07-14T07:06:10.130Z,20.99
2018-07-14T07:08:44.458Z,20.91
2018-07-14T07:11:18.635Z,20.93
2018-07-14T07:13:53.753Z,20.82
2018-07-14T07:16:26.279Z,20.83
2018-07-14T07:18:59.343Z,20.85
2018-07-14T07:21:33.215Z,20.90
2018-07-14T07:24:05.945Z,21.02
2018-07-14T07:26:38.451Z,21.09
2018-07-14T07:29:15.121Z,21.12
2018-07-14T07:31:52.563Z,21.18
2018-07-14T07:34:40.953Z,21.18
2018-07-14T07:37:41.937Z,21.17
2018-07-14T07:40:31.545Z,21.19
2018-07-14T07:43:11.316Z,21.40
2018-07-14T07:45:47.064Z,21.65
2018-07-14T07:48:26.354Z,21.84
2018-07-14T07:51:12.657Z,21.87
2018-07-14T07:53:50.348Z,22.29
2018-07-14T07:56:23.803Z,23.09
2018-07-14T07:58:56.315Z,23.72
2018-07-14T08:01:31.846Z,24.95
2018-07-14T08:04:14.444Z,24.30
2018-07-14T08:06:47.159Z,25.16
2018-07-14T08:09:20.780Z,25.43
2018-07-14T08:11:54.321Z,25.67
2018-07-14T08:14:26.737Z,25.38
2018-07-14T08:17:02.772Z,26.08
2018-07-14T08:19:37.027Z,26.02
2018-07-14T08:22:35.915Z,26.59
2018-07-14T08:25:10.610Z,27.03
2018-07-14T08:27:46.612Z,27.25
2018-07-14T08:30:22.655Z,27.35
2018-07-14T08:33:00.035Z,27.80
2018-07-14T08:35:32.995Z,27.67
2018-07-14T08:38:06.472Z,26.99
2018-07-14T08:40:39.134Z,26.93
2018-07-14T08:43:17.245Z,27.68
2018-07-14T08:45:50.677Z,27.39
2018-07-14T08:48:27.851Z,27.46
2018-07-14T08:51:08.451Z,27.18
2018-07-14T08:53:45.358Z,27.84
2018-07-14T08:56:31.078Z,27.59
2018-07-14T08:59:04.601Z,27.29
2018-07-14T09:01:41.294Z,28.08
2018-07-14T09:04:15.358Z,28.58
2018-07-14T09:06:49.962Z,28.32
2018-07-14T09:09:24.437Z,28.47
2018-07-14T09:12:00.777Z,28.14
2018-07-14T09:14:40.796Z,27.98
2018-07-14T09:17:18.285Z,27.70
2018-07-14T09:19:52.671Z,27.97
2018-07-14T09:22:30.282Z,27.76
2018-07-14T09:25:04.702Z,28.16
2018-07-14T09:27:39.388Z,28.17
2018-07-14T09:30:15.403Z,27.99
2018-07-14T09:32:48.093Z,27.22
2018-07-14T09:35:20.635Z,27.99
2018-07-14T09:37:53.880Z,28.31
2018-07-14T09:40:30.598Z,28.29
2018-07-14T09:43:06.084Z,28.24
2018-07-14T09:45:38.936Z,28.61
2018-07-14T09:48:12.817Z,28.77
2018-07-14T09:50:50.907Z,28.49
2018-07-14T09:53:25.084Z,28.60
2018-07-14T09:55:59.801Z,28.61
2018-07-14T09:58:42.284Z,28.59
2018-07-14T10:01:18.162Z,27.92
2018-07-14T10:03:51.693Z,28.66
2018-07-14T10:06:28.681Z,29.48
2018-07-14T10:09:01.982Z,29.41
2018-07-14T10:11:36.746Z,29.46
2018-07-14T10:14:10.296Z,29.47
2018-07-14T10:16:44.090Z,29.52
2018-07-14T10:19:20.320Z,29.23
2018-07-14T10:21:57.342Z,28.80
2018-07-14T10:24:32.526Z,28.95
2018-07-14T10:27:08.657Z,29.24
2018-07-14T10:29:43.997Z,29.36
2018-07-14T10:32:20.723Z,29.16
2018-07-14T10:34:54.978Z,29.06
2018-07-14T10:37:29.462Z,28.96
2018-07-14T10:40:04.171Z,29.16
2018-07-14T10:42:39.299Z,29.56
2018-07-14T10:45:15.741Z,29.37
2018-07-14T10:47:49.065Z,29.04
2018-07-14T10:50:21.720Z,28.13
2018-07-14T10:52:56.654Z,28.76
2018-07-14T10:55:30.573Z,29.08
2018-07-14T10:58:05.932Z,29.04
2018-07-14T11:00:40.333Z,29.68
2018-07-14T11:03:13.621Z,30.10
2018-07-14T11:05:50.660Z,30.64
2018-07-14T11:08:23.584Z,30.06
2018-07-14T11:10:57.971Z,29.85
2018-07-14T11:13:31.785Z,28.93
2018-07-14T11:16:06.730Z,28.18
2018-07-14T11:18:41.997Z,27.77
2018-07-14T11:21:17.333Z,27.97
2018-07-14T11:23:50.818Z,28.07
2018-07-14T11:26:26.250Z,28.57
2018-07-14T11:29:00.752Z,28.92
2018-07-14T11:31:38.589Z,29.14
2018-07-14T11:34:12.793Z,29.13
2018-07-14T11:36:50.085Z,29.07
2018-07-14T11:39:30.642Z,29.08
2018-07-14T11:42:17.847Z,29.20
2018-07-14T11:44:51.986Z,29.35
2018-07-14T11:47:25.546Z,29.79
2018-07-14T11:50:00.931Z,30.34
2018-07-14T11:52:33.472Z,30.79
2018-07-14T11:55:06.187Z,30.60
2018-07-14T11:57:39.773Z,29.85
2018-07-14T12:00:15.480Z,29.60
2018-07-14T12:02:48.374Z,29.94
2018-07-14T12:05:25.046Z,30.20
2018-07-14T12:07:59.630Z,30.22
2018-07-14T12:10:33.117Z,29.84
2018-07-14T12:13:09.354Z,29.74
2018-07-14T12:15:44.551Z,29.59
2018-07-14T12:18:18.984Z,29.13
2018-07-14T12:20:52.821Z,28.89
2018-07-14T12:23:26.569Z,29.19
2018-07-14T12:25:59.879Z,29.68
2018-07-14T12:28:34.640Z,30.24
2018-07-14T12:31:09.086Z,30.18
2018-07-14T12:33:45.820Z,29.84
2018-07-14T12:36:19.009Z,29.71
2018-07-14T12:38:51.656Z,29.41
2018-07-14T12:41:25.668Z,29.13
2018-07-14T12:43:59.067Z,28.97
2018-07-14T12:46:32.220Z,28.88
2018-07-14T12:49:05.557Z,28.83
2018-07-14T12:51:39.324Z,29.06
2018-07-14T12:54:13.833Z,29.64
2018-07-14T12:56:49.136Z,30.24
2018-07-14T12:59:23.570Z,30.31
2018-07-14T13:02:01.306Z,30.64
2018-07-14T13:04:38.241Z,30.76
2018-07-14T13:07:13.141Z,30.83
2018-07-14T13:09:48.778Z,30.89
2018-07-14T13:12:21.745Z,30.75
2018-07-14T13:14:54.271Z,31.17
2018-07-14T13:17:26.683Z,31.39
2018-07-14T13:20:04.370Z,30.80
2018-07-14T13:22:40.648Z,30.69
2018-07-14T13:25:15.739Z,31.62
2018-07-14T13:27:50.352Z,32.39
2018-07-14T13:30:23.715Z,32.96
2018-07-14T13:32:57.232Z,32.68
2018-07-14T13:35:31.103Z,31.68
2018-07-14T13:38:05.681Z,31.68
2018-07-14T13:40:42.910Z,31.59
2018-07-14T13:43:18.224Z,31.36
2018-07-14T13:45:52.239Z,31.55
2018-07-14T13:48:27.726Z,31.99
2018-07-14T13:51:02.436Z,32.21
2018-07-14T13:53:37.713Z,32.64
2018-07-14T13:56:13.429Z,32.83
2018-07-14T13:59:27.528Z,32.26
2018-07-14T14:02:03.833Z,32.34
2018-07-14T14:04:40.101Z,32.08
2018-07-14T14:07:18.345Z,32.10
2018-07-14T14:09:54.730Z,31.89
2018-07-14T14:12:31.453Z,32.02
2018-07-14T14:15:09.801Z,32.46
2018-07-14T14:17:45.400Z,32.65
2018-07-14T14:20:20.648Z,32.80
2018-07-14T14:22:56.951Z,32.70
2018-07-14T14:25:31.765Z,32.43
2018-07-14T14:28:07.381Z,32.27
2018-07-14T14:30:41.517Z,32.25
2018-07-14T14:33:16.119Z,31.95
2018-07-14T14:35:50.530Z,31.79
2018-07-14T14:38:23.109Z,32.10
2018-07-14T14:40:56.529Z,32.13
2018-07-14T14:43:29.388Z,32.30
2018-07-14T14:46:03.832Z,32.90
2018-07-14T14:48:37.097Z,33.14
2018-07-14T14:51:13.699Z,32.86
2018-07-14T14:53:47.153Z,32.45
2018-07-14T14:56:20.269Z,32.22
2018-07-14T14:58:53.412Z,32.06
2018-07-14T15:01:26.238Z,32.15
2018-07-14T15:03:58.722Z,32.20
2018-07-14T15:06:34.779Z,32.45
2018-07-14T15:09:08.506Z,32.93
2018-07-14T15:11:45.645Z,33.45
2018-07-14T15:14:20.693Z,34.35
2018-07-14T15:17:03.675Z,34.29
2018-07-14T15:19:40.599Z,34.15
2018-07-14T15:22:14.997Z,33.77
2018-07-14T15:24:56.280Z,33.11
2018-07-14T15:27:34.470Z,32.93
2018-07-14T15:30:09.020Z,32.46
2018-07-14T15:32:45.528Z,32.17
2018-07-14T15:35:22.859Z,32.13
2018-07-14T15:37:55.936Z,32.48
2018-07-14T15:40:28.511Z,32.48
2018-07-14T15:43:01.706Z,32.25
2018-07-14T15:45:35.012Z,32.33
2018-07-14T15:48:24.106Z,32.31
2018-07-14T15:50:58.400Z,32.02
2018-07-14T15:53:31.264Z,31.82
2018-07-14T15:56:05.536Z,31.94
2018-07-14T15:58:40.987Z,31.95
2018-07-14T16:01:13.741Z,32.27
2018-07-14T16:03:46.742Z,32.88
2018-07-14T16:06:19.801Z,33.12
2018-07-14T16:08:53.549Z,32.97
2018-07-14T16:11:28.002Z,32.67
2018-07-14T16:14:02.393Z,32.40
2018-07-14T16:16:34.833Z,32.58
2018-07-14T16:19:11.052Z,32.91
2018-07-14T16:21:43.945Z,32.69
2018-07-14T16:24:16.511Z,32.65
2018-07-14T16:26:50.570Z,32.39
2018-07-14T16:29:25.662Z,32.26
2018-07-14T16:31:59.128Z,32.73
2018-07-14T16:34:33.824Z,32.66
2018-07-14T16:37:09.755Z,32.46
2018-07-14T16:39:43.262Z,32.27
2018-07-14T16:42:19.793Z,32.39
2018-07-14T16:44:56.861Z,32.33
2018-07-14T16:47:33.636Z,32.44
2018-07-14T16:50:08.724Z,32.33
2018-07-14T16:52:42.348Z,31.98
2018-07-14T16:55:17.348Z,31.66
2018-07-14T16:57:53.493Z,31.56
2018-07-14T17:00:30.184Z,31.61
2018-07-14T17:03:03.901Z,31.21
2018-07-14T17:05:38.937Z,30.63
2018-07-14T17:08:17.292Z,30.63
2018-07-14T17:10:52.336Z,30.59
2018-07-14T17:13:27.248Z,30.50
2018-07-14T17:16:01.097Z,30.30
2018-07-14T17:18:35.213Z,30.21
2018-07-14T17:21:07.774Z,29.98
2018-07-14T17:23:51.288Z,30.05
2018-07-14T17:26:25.726Z,29.99
2018-07-14T17:29:01.058Z,29.74
2018-07-14T17:31:35.531Z,29.51
2018-07-14T17:34:10.000Z,29.37
2018-07-14T17:36:42.573Z,29.11
2018-07-14T17:39:15.419Z,28.85
2018-07-14T17:41:47.957Z,28.77
2018-07-14T17:44:20.841Z,28.66
2018-07-14T17:46:55.612Z,28.50
2018-07-14T17:49:32.092Z,28.37
2018-07-14T17:52:12.674Z,28.28
2018-07-14T17:54:50.739Z,28.16
2018-07-14T17:57:28.282Z,28.13
2018-07-14T18:00:03.686Z,28.05
2018-07-14T18:02:40.150Z,28.07
2018-07-14T18:05:12.969Z,28.14
2018-07-14T18:07:47.211Z,28.34
2018-07-14T18:10:21.398Z,28.41
2018-07-14T18:12:54.128Z,28.22
2018-07-14T18:15:29.230Z,28.10
2018-07-14T18:18:07.169Z,27.69
2018-07-14T18:20:40.838Z,27.33
2018-07-14T18:23:16.883Z,27.09
2018-07-14T18:25:50.479Z,26.87
2018-07-14T18:28:23.724Z,26.62
2018-07-14T18:30:58.944Z,26.45
2018-07-14T18:33:32.289Z,26.28
2018-07-14T18:36:09.543Z,26.08
2018-07-14T18:38:44.366Z,25.95
2018-07-14T18:41:19.468Z,25.85
2018-07-14T18:43:53.023Z,25.71
2018-07-14T18:46:27.845Z,25.55
2018-07-14T18:49:02.462Z,25.47
2018-07-14T18:51:39.248Z,25.39
2018-07-14T18:54:12.835Z,25.23
2018-07-14T18:56:54.792Z,25.09
2018-07-14T18:59:29.295Z,24.97
2018-07-14T19:02:04.902Z,24.88
2018-07-14T19:04:39.221Z,24.81
2018-07-14T19:07:14.683Z,24.71
2018-07-14T19:09:49.135Z,24.60
2018-07-14T19:12:21.716Z,24.45
2018-07-14T19:14:54.898Z,24.35
2018-07-14T19:17:30.023Z,24.25
2018-07-14T19:20:03.165Z,24.12
2018-07-14T19:22:50.944Z,23.98
2018-07-14T19:25:27.216Z,23.81
2018-07-14T19:28:03.813Z,23.66
2018-07-14T19:30:38.187Z,23.54
2018-07-14T19:33:15.452Z,23.44
2018-07-14T19:35:50.163Z,23.27
2018-07-14T19:38:24.317Z,23.14
2018-07-14T19:40:58.443Z,22.90
2018-07-14T19:43:33.377Z,22.69
2018-07-14T19:46:06.096Z,22.55
2018-07-14T19:48:41.552Z,22.39
2018-07-14T19:51:16.295Z,22.23
2018-07-14T19:53:50.927Z,22.03
2018-07-14T19:56:26.034Z,21.95
2018-07-14T19:59:02.016Z,21.87
2018-07-14T20:01:37.994Z,21.75
2018-07-14T20:04:13.315Z,21.60
2018-07-14T20:06:57.371Z,21.49
2018-07-14T20:09:35.271Z,21.35
2018-07-14T20:12:09.192Z,21.25
2018-07-14T20:14:43.360Z,21.28
2018-07-14T20:17:22.088Z,21.11
2018-07-14T20:19:58.850Z,20.97
2018-07-14T20:22:36.879Z,20.81
2018-07-14T20:25:16.283Z,20.78
2018-07-14T20:28:06.360Z,20.81
2018-07-14T20:30:41.589Z,20.62
2018-07-14T20:33:14.907Z,20.52
2018-07-14T20:35:48.898Z,20.47
2018-07-14T20:38:24.464Z,20.36
2018-07-14T20:41:02.174Z,20.22
2018-07-14T20:43:36.971Z,20.12
2018-07-14T20:46:11.918Z,20.05
2018-07-14T20:48:51.587Z,19.92
2018-07-14T20:51:26.459Z,19.81
2018-07-14T20:54:02.057Z,19.74
2018-07-14T20:56:37.709Z,19.66
2018-07-14T20:59:19.600Z,19.51
2018-07-14T21:01:58.948Z,19.43
2018-07-14T21:04:39.379Z,19.31
2018-07-14T21:07:18.438Z,19.18
2018-07-14T21:09:58.711Z,19.16
2018-07-14T21:12:37.857Z,19.15
2018-07-14T21:15:23.119Z,19.17
2018-07-14T21:18:06.555Z,19.10
2018-07-14T21:20:47.859Z,18.90
2018-07-14T21:23:22.194Z,18.70
2018-07-14T21:25:56.185Z,18.50
2018-07-14T21:28:32.602Z,18.32
2018-07-14T21:31:10.459Z,18.19
2018-07-14T21:33:43.681Z,18.05
2018-07-14T21:36:17.980Z,18.08
2018-07-14T21:38:55.254Z,18.09
2018-07-14T21:41:31.988Z,18.17
2018-07-14T21:44:08.177Z,18.13
2018-07-14T21:46:42.945Z,18.00
2018-07-14T21:49:16.273Z,17.83
2018-07-14T21:51:56.947Z,17.68
2018-07-14T21:54:35.361Z,17.64
2018-07-14T21:57:08.568Z,17.57
2018-07-14T21:59:44.039Z,17.57
2018-07-14T22:02:18.388Z,17.57
2018-07-14T22:04:58.817Z,17.56
2018-07-14T22:07:51.445Z,17.51
2018-07-14T22:10:32.417Z,17.38
2018-07-14T22:13:04.884Z,17.43
2018-07-14T22:15:46.062Z,17.49
2018-07-14T22:19:24.124Z,17.57
2018-07-14T22:21:57.857Z,17.51
2018-07-14T22:24:41.268Z,17.41
2018-07-14T22:27:16.563Z,17.36
2018-07-14T22:29:53.318Z,17.25
2018-07-14T22:32:28.006Z,17.16
2018-07-14T22:35:08.767Z,17.11
2018-07-14T22:37:44.009Z,17.07
2018-07-14T22:40:17.741Z,17.14
2018-07-14T22:42:51.637Z,17.20
2018-07-14T22:45:26.250Z,17.19
2018-07-14T22:47:58.725Z,17.19
2018-07-14T22:50:36.551Z,17.17
2018-07-14T22:53:09.950Z,17.18
2018-07-14T22:55:45.969Z,17.17
2018-07-14T22:58:19.710Z,17.14
2018-07-14T23:00:53.263Z,17.15
2018-07-14T23:03:26.104Z,17.06
2018-07-14T23:05:58.933Z,17.05
2018-07-14T23:08:32.315Z,17.17
2018-07-14T23:11:05.582Z,17.24
2018-07-14T23:13:40.637Z,17.28
2018-07-14T23:16:13.718Z,17.36
2018-07-14T23:18:47.889Z,17.39
2018-07-14T23:21:21.638Z,17.35
2018-07-14T23:23:55.847Z,17.34
2018-07-14T23:26:29.769Z,17.42
2018-07-14T23:29:02.700Z,17.51
2018-07-14T23:31:35.309Z,17.62
2018-07-14T23:34:10.045Z,17.73
2018-07-14T23:36:45.737Z,17.62
2018-07-14T23:39:20.079Z,17.51
2018-07-14T23:41:55.920Z,17.44
2018-07-14T23:44:30.097Z,17.47
2018-07-14T23:47:02.902Z,17.46
2018-07-14T23:49:35.437Z,17.41
2018-07-14T23:52:09.678Z,17.34
2018-07-14T23:54:44.058Z,17.26
2018-07-14T23:57:18.668Z,17.28
2018-07-14T23:59:52.620Z,17.23
